Time;durP1;ratioP1;P1;durP2;ratioP2;P2;SDS_P1;SDS_P2;PMS_P1;PMS_P2;Temp;Humidity;BMP_temperature;BMP_pressure;BME280_temperature;BME280_humidity;BME280_pressure;Samples;Min_cycle;Max_cycle;Signal;HPM_P1;HPM_P2
2021/11/25 00:00:16;;;;;;;;;18.75;12.25;;;;;;;;5087015;28;49266;-64
2021/11/25 00:02:41;;;;;;;;;21.50;21.50;;;;;;;;5086641;28;49954;-63
2021/11/25 00:05:08;;;;;;;;;28.25;23.75;;;;;;;;5087333;27;49639;-66
2021/11/25 00:07:33;;;;;;;;;24.00;21.00;;;;;;;;5087675;27;49713;-64
2021/11/25 00:09:58;;;;;;;;;32.50;26.50;;;;;;;;5086683;28;49574;-64
2021/11/25 00:12:24;;;;;;;;;22.75;22.00;;;;;;;;5087639;28;50038;-63
2021/11/25 00:14:49;;;;;;;;;27.00;21.75;;;;;;;;5087427;28;49541;-64
2021/11/25 00:17:14;;;;;;;;;27.50;20.25;;;;;;;;5087725;28;49300;-64
2021/11/25 00:19:39;;;;;;;;;28.50;23.00;;;;;;;;5085691;27;49894;-63
2021/11/25 00:22:04;;;;;;;;;29.00;25.75;;;;;;;;5086077;28;50027;-65
2021/11/25 00:24:30;;;;;;;;;26.75;23.75;;;;;;;;5086255;28;49482;-63
2021/11/25 00:26:55;;;;;;;;;35.25;29.50;;;;;;;;5086869;28;49356;-64
2021/11/25 00:29:20;;;;;;;;;29.50;27.50;;;;;;;;5086723;28;49543;-63
2021/11/25 00:31:46;;;;;;;;;28.50;26.25;;;;;;;;5087237;27;49949;-64
2021/11/25 00:34:11;;;;;;;;;33.25;30.50;;;;;;;;5085782;28;49411;-64
2021/11/25 00:36:36;;;;;;;;;34.75;31.25;;;;;;;;5087604;28;49547;-65
2021/11/25 00:39:02;;;;;;;;;33.25;31.50;;;;;;;;5087132;28;49364;-64
2021/11/25 00:41:27;;;;;;;;;26.25;22.25;;;;;;;;5086400;27;49675;-63
2021/11/25 00:43:53;;;;;;;;;27.50;23.25;;;;;;;;5085921;27;49438;-64
2021/11/25 00:46:18;;;;;;;;;26.75;23.75;;;;;;;;5070935;27;49829;-64
2021/11/25 00:48:43;;;;;;;;;25.75;25.25;;;;;;;;5069981;27;49906;-64
2021/11/25 00:51:10;;;;;;;;;30.00;27.25;;;;;;;;5070282;27;50447;-66
2021/11/25 00:53:35;;;;;;;;;32.25;29.00;;;;;;;;5069017;28;49781;-63
2021/11/25 00:56:00;;;;;;;;;30.75;26.50;;;;;;;;5070731;27;49802;-64
2021/11/25 00:58:25;;;;;;;;;34.00;30.00;;;;;;;;5071032;27;49640;-63
2021/11/25 01:00:51;;;;;;;;;31.50;29.25;;;;;;;;5070589;27;50417;-65
2021/11/25 01:03:16;;;;;;;;;31.50;29.75;;;;;;;;5070774;27;49568;-64
2021/11/25 01:05:41;;;;;;;;;31.25;28.75;;;;;;;;5070633;28;49811;-65
2021/11/25 01:08:07;;;;;;;;;27.00;25.50;;;;;;;;5070944;27;49763;-65
2021/11/25 01:10:33;;;;;;;;;29.25;25.75;;;;;;;;5070470;27;49786;-63
2021/11/25 01:12:58;;;;;;;;;39.75;29.25;;;;;;;;5070566;27;49575;-64
2021/11/25 01:15:31;;;;;;;;;33.00;27.25;;;;;;;;5070974;28;50000;-63
2021/11/25 01:17:58;;;;;;;;;29.75;26.75;;;;;;;;5070649;27;49891;-64
2021/11/25 01:20:23;;;;;;;;;32.25;28.75;;;;;;;;5070244;27;50220;-64
2021/11/25 01:22:48;;;;;;;;;32.75;27.25;;;;;;;;5070567;28;50042;-64
2021/11/25 01:25:14;;;;;;;;;31.75;28.00;;;;;;;;5068762;28;49779;-65
2021/11/25 01:27:39;;;;;;;;;24.75;24.75;;;;;;;;5070649;28;49589;-63
2021/11/25 01:30:06;;;;;;;;;25.25;25.25;;;;;;;;5070081;28;49807;-63
2021/11/25 01:32:31;;;;;;;;;25.00;25.00;;;;;;;;5070328;27;49624;-64
2021/11/25 01:34:56;;;;;;;;;24.00;24.00;;;;;;;;5070251;28;49662;-65
2021/11/25 01:37:25;;;;;;;;;23.50;21.50;;;;;;;;5070676;27;49694;-63
2021/11/25 01:39:50;;;;;;;;;20.75;20.00;;;;;;;;5070140;27;49719;-63
2021/11/25 01:42:15;;;;;;;;;25.00;25.00;;;;;;;;5070735;27;49767;-64
2021/11/25 01:44:40;;;;;;;;;25.50;23.50;;;;;;;;5070338;27;49702;-63
2021/11/25 01:47:05;;;;;;;;;26.50;22.00;;;;;;;;5070602;28;49797;-63
2021/11/25 01:49:31;;;;;;;;;17.25;17.25;;;;;;;;5069715;27;49748;-65
2021/11/25 01:51:57;;;;;;;;;26.50;20.50;;;;;;;;5071630;27;49976;-63
2021/11/25 01:54:22;;;;;;;;;21.25;18.75;;;;;;;;5073845;27;49569;-64
2021/11/25 01:56:48;;;;;;;;;22.25;20.75;;;;;;;;5073907;27;49937;-64
2021/11/25 01:59:13;;;;;;;;;20.50;18.50;;;;;;;;5073285;27;50429;-64
2021/11/25 02:01:38;;;;;;;;;23.00;17.75;;;;;;;;5073591;27;49664;-64
2021/11/25 02:04:04;;;;;;;;;19.50;18.25;;;;;;;;5073210;27;49795;-67
2021/11/25 02:06:30;;;;;;;;;19.25;19.00;;;;;;;;5073524;28;49717;-64
2021/11/25 02:08:55;;;;;;;;;17.50;15.75;;;;;;;;5073207;28;50681;-64
2021/11/25 02:11:21;;;;;;;;;20.25;16.50;;;;;;;;5073398;27;49569;-63
2021/11/25 02:13:46;;;;;;;;;15.75;15.25;;;;;;;;5073418;27;49560;-63
2021/11/25 02:16:11;;;;;;;;;19.25;19.00;;;;;;;;5073580;27;49711;-64
2021/11/25 02:18:36;;;;;;;;;23.00;21.00;;;;;;;;5072908;28;50463;-65
2021/11/25 02:21:03;;;;;;;;;20.25;16.50;;;;;;;;5072982;27;49673;-65
2021/11/25 02:23:28;;;;;;;;;18.50;16.50;;;;;;;;5072995;27;49864;-64
2021/11/25 02:25:54;;;;;;;;;15.50;15.50;;;;;;;;5073249;27;49570;-63
2021/11/25 02:28:20;;;;;;;;;18.00;17.00;;;;;;;;5072930;27;49897;-64
2021/11/25 02:30:46;;;;;;;;;14.50;13.00;;;;;;;;5071099;28;49773;-64
2021/11/25 02:33:11;;;;;;;;;15.75;15.25;;;;;;;;5073154;27;49830;-66
2021/11/25 02:35:39;;;;;;;;;14.00;14.00;;;;;;;;5073104;27;49977;-65
2021/11/25 02:38:04;;;;;;;;;19.50;18.00;;;;;;;;5072606;27;50507;-65
2021/11/25 02:40:32;;;;;;;;;18.25;17.50;;;;;;;;5072806;27;49567;-65
2021/11/25 02:43:18;;;;;;;;;15.75;15.50;;;;;;;;5072729;27;49981;-65
2021/11/25 02:45:46;;;;;;;;;24.00;21.00;;;;;;;;5072521;27;50038;-65
2021/11/25 02:48:12;;;;;;;;;21.00;17.50;;;;;;;;5072685;27;51063;-64
2021/11/25 02:50:38;;;;;;;;;17.50;15.75;;;;;;;;5072878;27;49851;-65
2021/11/25 02:53:03;;;;;;;;;19.00;19.00;;;;;;;;5072834;27;49664;-64
2021/11/25 02:55:28;;;;;;;;;23.00;21.25;;;;;;;;5073094;27;49799;-64
2021/11/25 02:57:53;;;;;;;;;19.25;19.00;;;;;;;;5072459;28;51523;-64
2021/11/25 03:00:21;;;;;;;;;22.00;18.25;;;;;;;;5072724;28;50340;-64
2021/11/25 03:02:53;;;;;;;;;22.25;20.00;;;;;;;;5071821;27;49855;-64
2021/11/25 03:05:18;;;;;;;;;19.50;19.25;;;;;;;;5071949;27;49647;-63
2021/11/25 03:07:43;;;;;;;;;20.00;19.50;;;;;;;;5072049;27;49544;-63
2021/11/25 03:10:09;;;;;;;;;25.50;22.50;;;;;;;;5072248;27;49867;-64
2021/11/25 03:12:34;;;;;;;;;21.00;19.75;;;;;;;;5072374;27;49707;-63
2021/11/25 03:14:59;;;;;;;;;23.50;23.50;;;;;;;;5070984;28;49798;-64
2021/11/25 03:17:24;;;;;;;;;27.25;24.75;;;;;;;;5072026;27;49875;-64
2021/11/25 03:19:49;;;;;;;;;16.50;13.25;;;;;;;;5071892;27;49672;-66
2021/11/25 03:22:15;;;;;;;;;29.00;20.50;;;;;;;;5071978;27;49866;-64
2021/11/25 03:24:40;;;;;;;;;28.25;23.25;;;;;;;;5072126;28;49832;-65
2021/11/25 03:27:05;;;;;;;;;25.00;24.00;;;;;;;;5072125;27;50627;-64
2021/11/25 03:29:31;;;;;;;;;24.50;23.00;;;;;;;;5072621;27;50084;-64
2021/11/25 03:31:56;;;;;;;;;22.50;21.00;;;;;;;;5072042;28;49850;-65
2021/11/25 03:34:21;;;;;;;;;27.50;26.25;;;;;;;;5072081;27;49861;-64
2021/11/25 03:36:46;;;;;;;;;29.25;25.25;;;;;;;;5071741;28;49641;-63
2021/11/25 03:39:12;;;;;;;;;38.00;30.50;;;;;;;;5070345;28;49965;-65
2021/11/25 03:41:37;;;;;;;;;28.50;27.00;;;;;;;;5071876;27;50041;-64
2021/11/25 03:44:02;;;;;;;;;31.25;28.75;;;;;;;;5072505;27;49785;-63
2021/11/25 03:46:30;;;;;;;;;21.00;17.50;;;;;;;;5071890;27;49811;-65
2021/11/25 03:48:55;;;;;;;;;42.50;36.50;;;;;;;;5071436;27;49621;-64
2021/11/25 03:51:20;;;;;;;;;35.00;28.25;;;;;;;;5071868;27;49995;-63
2021/11/25 03:53:48;;;;;;;;;41.00;36.00;;;;;;;;5072335;27;49918;-63
2021/11/25 03:56:14;;;;;;;;;38.75;34.75;;;;;;;;5069514;28;49771;-64
2021/11/25 03:58:39;;;;;;;;;41.00;34.00;;;;;;;;5071600;28;49667;-64
2021/11/25 04:01:04;;;;;;;;;50.00;37.75;;;;;;;;5071551;27;49626;-64
2021/11/25 04:03:30;;;;;;;;;42.75;36.75;;;;;;;;5071402;27;49798;-64
2021/11/25 04:05:55;;;;;;;;;41.75;37.25;;;;;;;;5071270;27;49666;-63
2021/11/25 04:08:20;;;;;;;;;44.50;40.50;;;;;;;;5071454;28;49759;-64
2021/11/25 04:10:46;;;;;;;;;48.75;37.75;;;;;;;;5071651;28;49750;-64
2021/11/25 04:13:11;;;;;;;;;45.50;37.50;;;;;;;;5071604;27;49946;-64
2021/11/25 04:15:37;;;;;;;;;39.25;36.75;;;;;;;;5070783;28;50510;-67
2021/11/25 04:18:02;;;;;;;;;47.50;40.75;;;;;;;;5071387;27;49700;-68
2021/11/25 04:20:28;;;;;;;;;42.50;36.25;;;;;;;;5071319;27;49983;-69
2021/11/25 04:22:53;;;;;;;;;48.25;41.50;;;;;;;;5071176;27;49664;-69
2021/11/25 04:25:19;;;;;;;;;39.00;37.75;;;;;;;;5071228;28;50577;-66
2021/11/25 04:27:44;;;;;;;;;47.00;40.50;;;;;;;;5071214;27;49702;-63
2021/11/25 04:30:13;;;;;;;;;51.00;43.00;;;;;;;;5071611;27;50383;-65
2021/11/25 04:35:29;;;;;;;;;47.00;41.25;;;;;;;;5070713;28;50182;-64
2021/11/25 04:37:54;;;;;;;;;45.75;42.50;;;;;;;;5071067;27;49814;-64
2021/11/25 04:40:20;;;;;;;;;42.50;38.50;;;;;;;;5071141;27;49958;-63
2021/11/25 04:42:45;;;;;;;;;49.00;43.00;;;;;;;;5071327;27;49771;-63
2021/11/25 04:45:10;;;;;;;;;53.25;42.00;;;;;;;;5070898;27;50595;-64
2021/11/25 04:47:36;;;;;;;;;47.75;41.50;;;;;;;;5071021;27;49626;-64
2021/11/25 04:50:02;;;;;;;;;47.00;40.00;;;;;;;;5070886;27;49978;-64
2021/11/25 04:52:28;;;;;;;;;58.25;47.75;;;;;;;;5071236;27;49872;-63
2021/11/25 04:54:53;;;;;;;;;51.00;42.00;;;;;;;;5070704;28;49722;-64
2021/11/25 04:57:18;;;;;;;;;51.25;44.00;;;;;;;;5071030;27;49729;-62
2021/11/25 04:59:43;;;;;;;;;58.25;45.50;;;;;;;;5070720;27;49901;-66
2021/11/25 05:02:09;;;;;;;;;66.00;51.50;;;;;;;;5071028;27;49635;-65
2021/11/25 05:04:34;;;;;;;;;53.00;45.25;;;;;;;;5070076;27;49750;-60
2021/11/25 05:06:59;;;;;;;;;62.75;50.00;;;;;;;;5070549;28;49790;-60
2021/11/25 05:09:24;;;;;;;;;60.00;46.25;;;;;;;;5071189;27;49859;-61
2021/11/25 05:11:52;;;;;;;;;62.25;45.75;;;;;;;;5070776;27;49104;-61
2021/11/25 05:14:17;;;;;;;;;58.75;42.00;;;;;;;;5070447;27;49763;-62
2021/11/25 05:16:44;;;;;;;;;58.50;47.50;;;;;;;;5070857;28;49851;-63
2021/11/25 05:19:10;;;;;;;;;57.75;43.00;;;;;;;;5069692;27;49700;-62
2021/11/25 05:21:35;;;;;;;;;63.75;50.25;;;;;;;;5069333;28;49613;-61
2021/11/25 05:24:00;;;;;;;;;62.00;50.00;;;;;;;;5070371;27;49764;-62
2021/11/25 05:26:25;;;;;;;;;57.00;41.25;;;;;;;;5070760;28;49771;-62
2021/11/25 05:28:51;;;;;;;;;66.00;49.25;;;;;;;;5074050;28;49710;-60
2021/11/25 05:31:16;;;;;;;;;56.00;45.50;;;;;;;;5074146;27;49866;-61
2021/11/25 05:33:41;;;;;;;;;63.50;50.50;;;;;;;;5073590;27;50495;-61
2021/11/25 05:36:06;;;;;;;;;58.00;48.50;;;;;;;;5073905;27;49958;-61
2021/11/25 05:38:32;;;;;;;;;65.50;51.50;;;;;;;;5074048;28;49700;-61
2021/11/25 05:40:57;;;;;;;;;63.75;50.50;;;;;;;;5074299;27;49580;-62
2021/11/25 05:43:22;;;;;;;;;52.25;45.00;;;;;;;;5073571;27;49823;-61
2021/11/25 05:45:47;;;;;;;;;58.00;46.25;;;;;;;;5073973;28;49568;-62
2021/11/25 05:48:13;;;;;;;;;63.25;47.75;;;;;;;;5073407;27;49704;-61
2021/11/25 05:50:38;;;;;;;;;63.25;51.00;;;;;;;;5073889;28;49720;-61
2021/11/25 05:53:04;;;;;;;;;59.75;46.25;;;;;;;;5073485;28;49740;-62
2021/11/25 05:55:30;;;;;;;;;56.75;47.25;;;;;;;;5073816;27;49882;-61
2021/11/25 05:57:56;;;;;;;;;62.25;49.75;;;;;;;;5073138;27;49855;-61
2021/11/25 06:00:21;;;;;;;;;66.75;53.25;;;;;;;;5073745;27;49862;-65
2021/11/25 06:02:47;;;;;;;;;60.50;48.25;;;;;;;;5073789;27;49926;-62
2021/11/25 06:05:13;;;;;;;;;65.50;50.00;;;;;;;;5073080;28;49690;-62
2021/11/25 06:07:42;;;;;;;;;60.75;48.25;;;;;;;;5073370;27;49709;-61
2021/11/25 06:10:07;;;;;;;;;66.75;50.00;;;;;;;;5073529;27;49683;-66
2021/11/25 06:12:33;;;;;;;;;61.50;50.00;;;;;;;;5073284;27;50503;-61
2021/11/25 06:14:58;;;;;;;;;59.50;50.00;;;;;;;;5073471;27;49611;-61
2021/11/25 06:17:23;;;;;;;;;54.75;43.50;;;;;;;;5073146;27;50044;-62
2021/11/25 06:19:53;;;;;;;;;56.25;46.00;;;;;;;;5073120;27;49987;-61
2021/11/25 06:22:18;;;;;;;;;66.50;51.50;;;;;;;;5072349;27;49856;-61
2021/11/25 06:24:43;;;;;;;;;68.50;51.00;;;;;;;;5073299;27;49975;-61
2021/11/25 06:27:08;;;;;;;;;66.75;53.75;;;;;;;;5073125;27;49716;-61
2021/11/25 06:29:34;;;;;;;;;60.25;49.75;;;;;;;;5073374;27;49708;-60
2021/11/25 06:31:59;;;;;;;;;64.25;52.50;;;;;;;;5072897;27;49779;-60
2021/11/25 06:34:24;;;;;;;;;64.75;52.00;;;;;;;;5072630;27;49730;-62
2021/11/25 06:36:49;;;;;;;;;66.75;53.25;;;;;;;;5073205;27;49856;-61
2021/11/25 06:39:15;;;;;;;;;67.00;52.50;;;;;;;;5072817;27;50033;-62
2021/11/25 06:41:41;;;;;;;;;70.25;52.25;;;;;;;;5072598;28;50783;-61
2021/11/25 06:44:06;;;;;;;;;67.00;51.25;;;;;;;;5072981;27;49913;-60
2021/11/25 06:46:31;;;;;;;;;65.25;52.50;;;;;;;;5072815;28;49702;-60
2021/11/25 06:48:57;;;;;;;;;62.25;47.25;;;;;;;;5072793;27;49882;-60
2021/11/25 06:51:22;;;;;;;;;67.50;54.75;;;;;;;;5072078;27;49669;-61
2021/11/25 06:53:47;;;;;;;;;69.25;53.00;;;;;;;;5072708;28;49758;-60
2021/11/25 06:56:12;;;;;;;;;62.00;51.75;;;;;;;;5072818;28;49892;-61
2021/11/25 06:58:38;;;;;;;;;67.75;52.75;;;;;;;;5072845;28;49728;-60
2021/11/25 07:01:06;;;;;;;;;68.00;55.00;;;;;;;;5072281;27;50730;-60
2021/11/25 07:03:33;;;;;;;;;71.50;53.50;;;;;;;;5072485;27;49633;-60
2021/11/25 07:05:59;;;;;;;;;62.50;51.75;;;;;;;;5072512;27;49953;-60
2021/11/25 07:08:24;;;;;;;;;67.25;51.50;;;;;;;;5072646;27;49788;-60
2021/11/25 07:10:49;;;;;;;;;63.25;46.50;;;;;;;;5072439;27;51114;-60
2021/11/25 07:13:14;;;;;;;;;68.25;55.50;;;;;;;;5072097;27;49876;-65
2021/11/25 07:15:40;;;;;;;;;69.50;55.00;;;;;;;;5072490;27;50082;-67
2021/11/25 07:18:06;;;;;;;;;61.75;51.50;;;;;;;;5072408;28;49912;-66
2021/11/25 07:20:31;;;;;;;;;74.50;58.00;;;;;;;;5072057;27;50878;-72
2021/11/25 07:22:56;;;;;;;;;65.75;51.00;;;;;;;;5070767;28;49717;-71
2021/11/25 07:25:24;;;;;;;;;67.75;52.75;;;;;;;;5088516;27;49707;-69
2021/11/25 07:27:52;;;;;;;;;65.25;50.75;;;;;;;;5072802;27;49863;-65
2021/11/25 07:30:18;;;;;;;;;66.50;52.25;;;;;;;;5071862;27;50536;-66
2021/11/25 07:32:43;;;;;;;;;68.25;54.00;;;;;;;;5072010;27;49653;-67
2021/11/25 07:35:09;;;;;;;;;72.00;54.25;;;;;;;;5071985;27;49928;-66
2021/11/25 07:37:35;;;;;;;;;67.00;54.75;;;;;;;;5072156;27;49878;-70
2021/11/25 07:40:00;;;;;;;;;65.25;53.00;;;;;;;;5069415;27;50934;-69
2021/11/25 07:42:26;;;;;;;;;71.00;54.00;;;;;;;;5072009;27;49833;-68
2021/11/25 07:44:51;;;;;;;;;65.25;54.00;;;;;;;;5071881;27;49762;-68
2021/11/25 07:47:31;;;;;;;;;67.25;52.00;;;;;;;;5072112;27;49881;-71
2021/11/25 07:49:56;;;;;;;;;61.25;50.75;;;;;;;;5070650;27;50916;-68
2021/11/25 07:52:21;;;;;;;;;68.00;49.25;;;;;;;;5071763;27;49766;-68
2021/11/25 07:54:46;;;;;;;;;67.75;54.25;;;;;;;;5071796;27;49701;-66
2021/11/25 07:57:11;;;;;;;;;75.75;54.50;;;;;;;;5071764;27;49518;-67
2021/11/25 07:59:37;;;;;;;;;65.50;52.50;;;;;;;;5071749;27;49911;-68
2021/11/25 08:02:02;;;;;;;;;71.25;56.25;;;;;;;;5071613;27;49630;-69
2021/11/25 08:04:27;;;;;;;;;66.50;52.50;;;;;;;;5070131;28;49721;-70
2021/11/25 08:06:52;;;;;;;;;67.25;54.00;;;;;;;;5071932;27;49735;-70
2021/11/25 08:09:18;;;;;;;;;74.00;57.00;;;;;;;;5071076;28;50925;-71
2021/11/25 08:11:43;;;;;;;;;70.00;52.50;;;;;;;;5071430;27;49703;-71
2021/11/25 08:14:09;;;;;;;;;73.25;53.25;;;;;;;;5070920;28;50124;-70
2021/11/25 08:16:34;;;;;;;;;71.25;57.25;;;;;;;;5071658;27;49837;-70
2021/11/25 08:18:59;;;;;;;;;65.75;50.75;;;;;;;;5069770;28;50276;-70
2021/11/25 08:21:24;;;;;;;;;70.50;56.50;;;;;;;;5071304;28;49988;-70
2021/11/25 08:23:50;;;;;;;;;74.25;57.25;;;;;;;;5071562;28;49910;-70
2021/11/25 08:26:15;;;;;;;;;69.75;57.00;;;;;;;;5070214;28;50224;-70
2021/11/25 08:28:41;;;;;;;;;70.67;57.33;;;;;;;;5070827;28;49991;-71
2021/11/25 08:31:07;;;;;;;;;75.75;57.25;;;;;;;;5069943;28;49819;-70
2021/11/25 08:33:32;;;;;;;;;73.33;57.00;;;;;;;;5070861;27;50752;-70
2021/11/25 08:35:58;;;;;;;;;68.25;54.50;;;;;;;;5071358;28;49777;-68
2021/11/25 08:38:23;;;;;;;;;65.50;53.50;;;;;;;;5070893;28;50277;-69
2021/11/25 08:40:48;;;;;;;;;68.25;53.25;;;;;;;;5071071;28;49648;-69
2021/11/25 08:43:14;;;;;;;;;67.25;52.00;;;;;;;;5070953;28;49750;-70
2021/11/25 08:45:39;;;;;;;;;68.75;52.25;;;;;;;;5069716;28;49732;-69
2021/11/25 08:48:05;;;;;;;;;70.75;56.00;;;;;;;;5070359;28;50539;-69
2021/11/25 08:50:30;;;;;;;;;63.25;52.25;;;;;;;;5070952;28;49793;-68
2021/11/25 08:52:56;;;;;;;;;70.75;56.25;;;;;;;;5070963;28;49742;-69
2021/11/25 08:55:21;;;;;;;;;74.50;58.00;;;;;;;;5071016;28;49707;-68
2021/11/25 08:57:46;;;;;;;;;66.75;54.00;;;;;;;;5070449;28;49792;-68
2021/11/25 09:00:12;;;;;;;;;69.50;54.50;;;;;;;;5069127;28;49744;-69
2021/11/25 09:02:37;;;;;;;;;70.25;54.00;;;;;;;;5070840;28;49570;-68
2021/11/25 09:05:03;;;;;;;;;77.25;56.00;;;;;;;;5070823;28;49858;-69
2021/11/25 09:07:28;;;;;;;;;60.50;48.75;;;;;;;;5070279;28;49687;-68
2021/11/25 09:09:54;;;;;;;;;73.75;56.25;;;;;;;;5070713;28;49761;-68
2021/11/25 09:12:19;;;;;;;;;73.75;56.50;;;;;;;;5070869;28;49639;-69
2021/11/25 09:14:44;;;;;;;;;74.50;58.75;;;;;;;;5070928;28;49864;-68
2021/11/25 09:17:09;;;;;;;;;68.25;55.75;;;;;;;;5070449;28;50731;-69
2021/11/25 09:19:35;;;;;;;;;83.00;60.33;;;;;;;;5070257;28;49851;-69
2021/11/25 09:22:00;;;;;;;;;77.75;57.75;;;;;;;;5070331;28;49840;-69
2021/11/25 09:24:25;;;;;;;;;82.00;59.67;;;;;;;;5070437;28;49969;-69
2021/11/25 09:26:50;;;;;;;;;75.00;59.00;;;;;;;;5070097;28;50150;-68
2021/11/25 09:29:16;;;;;;;;;78.67;59.33;;;;;;;;5070513;28;49880;-69
2021/11/25 09:31:41;;;;;;;;;71.50;57.50;;;;;;;;5070626;28;49846;-68
2021/11/25 09:34:07;;;;;;;;;76.00;58.75;;;;;;;;5070390;28;49847;-69
2021/11/25 09:36:34;;;;;;;;;77.00;57.50;;;;;;;;5070141;28;50587;-69
2021/11/25 09:39:00;;;;;;;;;79.50;58.00;;;;;;;;5070413;28;49936;-68
2021/11/25 09:41:26;;;;;;;;;76.50;57.75;;;;;;;;5070258;28;49961;-69
2021/11/25 09:43:52;;;;;;;;;76.00;58.25;;;;;;;;5070496;28;49626;-69
2021/11/25 09:46:19;;;;;;;;;75.00;56.25;;;;;;;;5069993;28;49661;-68
2021/11/25 09:48:45;;;;;;;;;78.75;60.25;;;;;;;;5070133;28;50134;-69
2021/11/25 09:51:10;;;;;;;;;71.50;57.25;;;;;;;;5069156;28;49935;-69
2021/11/25 09:53:36;;;;;;;;;75.25;59.50;;;;;;;;5070406;28;50105;-69
2021/11/25 09:56:03;;;;;;;;;69.00;56.50;;;;;;;;5069883;28;50407;-69
2021/11/25 09:58:29;;;;;;;;;68.25;55.00;;;;;;;;5069982;28;49609;-70
2021/11/25 10:00:56;;;;;;;;;78.75;59.00;;;;;;;;5068744;28;49984;-69
2021/11/25 10:03:21;;;;;;;;;75.25;57.75;;;;;;;;5070017;28;50115;-68
2021/11/25 10:05:48;;;;;;;;;75.25;58.50;;;;;;;;5069450;28;50742;-68
2021/11/25 10:08:33;;;;;;;;;67.25;53.75;;;;;;;;5069767;28;49920;-68
2021/11/25 10:11:09;;;;;;;;;69.50;54.50;;;;;;;;5068539;28;49713;-69
2021/11/25 10:13:55;;;;;;;;;69.00;53.50;;;;;;;;5072246;28;49789;-68
2021/11/25 10:16:27;;;;;;;;;69.75;56.25;;;;;;;;5073065;28;49666;-73
2021/11/25 10:18:53;;;;;;;;;72.50;55.25;;;;;;;;5071662;28;49813;-67
2021/11/25 10:21:19;;;;;;;;;66.00;54.25;;;;;;;;5073134;28;49684;-67
2021/11/25 10:23:46;;;;;;;;;69.75;53.25;;;;;;;;5073488;28;49845;-67
2021/11/25 10:26:16;;;;;;;;;68.75;53.75;;;;;;;;5073135;28;49870;-66
2021/11/25 10:28:41;;;;;;;;;68.50;53.25;;;;;;;;5071498;28;49756;-67
2021/11/25 10:31:12;;;;;;;;;63.75;51.75;;;;;;;;5073122;28;49941;-68
2021/11/25 10:33:56;;;;;;;;;68.75;51.75;;;;;;;;5073018;27;49973;-66
2021/11/25 10:39:03;;;;;;;;;74.25;59.75;;;;;;;;5072991;28;50035;-68
2021/11/25 10:41:29;;;;;;;;;70.00;55.00;;;;;;;;5072946;28;49834;-68
2021/11/25 10:44:06;;;;;;;;;68.50;55.00;;;;;;;;5073177;28;49760;-66
2021/11/25 10:46:38;;;;;;;;;68.75;54.50;;;;;;;;5072715;28;50808;-68
2021/11/25 10:49:03;;;;;;;;;69.00;53.25;;;;;;;;5072448;28;49677;-68
2021/11/25 10:51:30;;;;;;;;;65.50;53.25;;;;;;;;5072783;28;49740;-66
2021/11/25 10:54:02;;;;;;;;;74.75;56.25;;;;;;;;5072943;28;49666;-66
2021/11/25 10:56:47;;;;;;;;;67.75;53.50;;;;;;;;5072359;28;49846;-66
2021/11/25 10:59:14;;;;;;;;;67.50;54.00;;;;;;;;5072690;28;49760;-65
2021/11/25 11:01:41;;;;;;;;;71.75;52.25;;;;;;;;5072708;28;49898;-65
2021/11/25 11:04:06;;;;;;;;;60.00;48.25;;;;;;;;5071779;28;49749;-66
2021/11/25 11:06:33;;;;;;;;;67.00;52.00;;;;;;;;5072373;27;49951;-66
2021/11/25 11:08:58;;;;;;;;;63.50;50.00;;;;;;;;5072314;28;49893;-67
2021/11/25 11:11:24;;;;;;;;;67.75;52.25;;;;;;;;5072587;27;49651;-66
2021/11/25 11:16:47;;;;;;;;;60.50;49.00;;;;;;;;5072314;27;49830;-66
2021/11/25 11:19:13;;;;;;;;;68.00;52.50;;;;;;;;5070845;28;49683;-67
2021/11/25 11:21:43;;;;;;;;;64.00;50.75;;;;;;;;5072268;28;49749;-67
2021/11/25 11:24:17;;;;;;;;;61.50;51.00;;;;;;;;5071388;28;49783;-67
2021/11/25 11:26:47;;;;;;;;;68.75;54.75;;;;;;;;5072030;27;49752;-66
2021/11/25 11:29:13;;;;;;;;;74.00;54.25;;;;;;;;5071863;28;49809;-65
2021/11/25 11:31:39;;;;;;;;;72.00;56.75;;;;;;;;5071842;27;49561;-66
2021/11/25 11:34:05;;;;;;;;;62.25;51.25;;;;;;;;5072335;27;49763;-68
2021/11/25 11:36:31;;;;;;;;;55.25;44.50;;;;;;;;5071855;27;49667;-67
2021/11/25 11:38:58;;;;;;;;;62.00;50.25;;;;;;;;5072179;27;49639;-68
2021/11/25 11:41:23;;;;;;;;;60.75;48.75;;;;;;;;5072096;27;49735;-66
2021/11/25 11:43:48;;;;;;;;;71.75;54.50;;;;;;;;5072305;27;49915;-67
2021/11/25 11:46:14;;;;;;;;;60.50;50.25;;;;;;;;5071616;28;49687;-66
2021/11/25 11:48:40;;;;;;;;;67.75;54.00;;;;;;;;5070270;28;49811;-67
2021/11/25 11:51:15;;;;;;;;;67.00;54.00;;;;;;;;5070456;28;49651;-67
2021/11/25 11:53:41;;;;;;;;;67.25;53.50;;;;;;;;5071923;27;49783;-67
2021/11/25 11:56:08;;;;;;;;;66.75;53.50;;;;;;;;5071624;27;49816;-66
2021/11/25 11:58:35;;;;;;;;;63.75;52.50;;;;;;;;5071708;27;49773;-66
2021/11/25 12:01:06;;;;;;;;;77.25;54.75;;;;;;;;5071878;27;49641;-66
2021/11/25 12:03:34;;;;;;;;;67.25;54.75;;;;;;;;5071675;27;49623;-66
2021/11/25 12:05:59;;;;;;;;;65.00;52.00;;;;;;;;5071273;27;49700;-67
2021/11/25 12:08:24;;;;;;;;;66.75;53.75;;;;;;;;5071525;27;49806;-67
2021/11/25 12:10:55;;;;;;;;;68.75;50.75;;;;;;;;5071610;27;49713;-66
2021/11/25 12:13:21;;;;;;;;;66.00;52.75;;;;;;;;5071819;27;49624;-66
2021/11/25 12:15:47;;;;;;;;;70.50;53.00;;;;;;;;5071771;27;50488;-66
2021/11/25 12:18:31;;;;;;;;;69.00;54.75;;;;;;;;5071440;27;49585;-67
2021/11/25 12:20:58;;;;;;;;;64.00;51.25;;;;;;;;5071096;27;49802;-67
2021/11/25 12:23:33;;;;;;;;;70.00;53.75;;;;;;;;5071338;27;49494;-66
2021/11/25 12:25:58;;;;;;;;;69.00;55.25;;;;;;;;5071228;27;49639;-68
2021/11/25 12:28:27;;;;;;;;;70.25;56.25;;;;;;;;5071338;28;49645;-67
2021/11/25 12:30:55;;;;;;;;;71.25;58.50;;;;;;;;5069958;28;49856;-66
2021/11/25 12:33:40;;;;;;;;;64.50;52.00;;;;;;;;5071480;27;49740;-67
2021/11/25 12:36:06;;;;;;;;;65.75;53.25;;;;;;;;5070513;27;49691;-66
2021/11/25 12:38:36;;;;;;;;;69.75;53.50;;;;;;;;5071167;27;50249;-67
2021/11/25 12:41:03;;;;;;;;;71.75;55.75;;;;;;;;5071201;27;49572;-67
2021/11/25 12:43:30;;;;;;;;;67.25;52.25;;;;;;;;5071352;27;49940;-66
2021/11/25 12:46:03;;;;;;;;;63.50;51.50;;;;;;;;5070863;28;50445;-67
2021/11/25 12:48:34;;;;;;;;;65.25;51.75;;;;;;;;5070880;27;49875;-67
2021/11/25 12:51:04;;;;;;;;;71.75;58.00;;;;;;;;5070840;27;49846;-67
2021/11/25 12:53:30;;;;;;;;;64.25;52.75;;;;;;;;5071232;27;49970;-67
2021/11/25 12:55:57;;;;;;;;;71.00;55.75;;;;;;;;5070849;28;49491;-67
2021/11/25 12:58:36;;;;;;;;;65.50;52.50;;;;;;;;5070992;27;49712;-65
2021/11/25 13:01:02;;;;;;;;;66.25;54.00;;;;;;;;5067759;27;50009;-67
2021/11/25 13:03:27;;;;;;;;;68.00;52.50;;;;;;;;5071034;27;49687;-65
2021/11/25 13:05:53;;;;;;;;;60.00;49.50;;;;;;;;5070304;28;50478;-64
2021/11/25 13:08:28;;;;;;;;;67.00;51.75;;;;;;;;5070425;27;49729;-67
2021/11/25 13:10:53;;;;;;;;;66.50;51.50;;;;;;;;5070772;28;49780;-66
2021/11/25 13:13:24;;;;;;;;;67.25;52.00;;;;;;;;5070723;27;49556;-65
2021/11/25 13:15:59;;;;;;;;;62.75;50.00;;;;;;;;5070386;27;50798;-67
2021/11/25 13:18:43;;;;;;;;;60.50;49.50;;;;;;;;5070409;27;49676;-67
2021/11/25 13:21:18;;;;;;;;;68.00;51.00;;;;;;;;5070121;27;49888;-67
2021/11/25 13:23:49;;;;;;;;;67.75;53.00;;;;;;;;5070693;27;49715;-66
2021/11/25 13:26:14;;;;;;;;;65.75;52.75;;;;;;;;5070425;27;50056;-66
2021/11/25 13:28:39;;;;;;;;;62.75;51.00;;;;;;;;5070498;27;49774;-66
2021/11/25 13:31:14;;;;;;;;;66.50;52.75;;;;;;;;5070465;27;49722;-67
2021/11/25 13:33:58;;;;;;;;;63.75;49.00;;;;;;;;5070384;27;49626;-66
2021/11/25 13:36:25;;;;;;;;;59.00;49.75;;;;;;;;5069793;28;49791;-66
2021/11/25 13:38:51;;;;;;;;;62.50;49.25;;;;;;;;5070390;27;49869;-66
2021/11/25 13:41:20;;;;;;;;;64.50;50.00;;;;;;;;5070442;27;49726;-66
2021/11/25 13:43:50;;;;;;;;;63.75;50.75;;;;;;;;5070475;27;49853;-66
2021/11/25 13:46:15;;;;;;;;;64.75;51.50;;;;;;;;5070240;27;50046;-66
2021/11/25 13:48:41;;;;;;;;;62.50;50.00;;;;;;;;5072383;28;49873;-67
2021/11/25 13:51:06;;;;;;;;;63.50;51.75;;;;;;;;5073573;28;50195;-67
2021/11/25 13:53:32;;;;;;;;;59.50;48.00;;;;;;;;5073873;27;49679;-64
2021/11/25 13:55:57;;;;;;;;;66.25;52.00;;;;;;;;5073527;27;50381;-66
2021/11/25 13:58:23;;;;;;;;;65.50;48.50;;;;;;;;5073843;27;49804;-68
2021/11/25 14:00:51;;;;;;;;;67.25;52.50;;;;;;;;5073832;27;49941;-70
2021/11/25 14:03:16;;;;;;;;;63.50;52.75;;;;;;;;5073872;27;49855;-69
2021/11/25 14:05:45;;;;;;;;;58.50;46.50;;;;;;;;5073226;27;50373;-69
2021/11/25 14:08:11;;;;;;;;;62.00;50.50;;;;;;;;5071789;28;49937;-68
2021/11/25 14:10:36;;;;;;;;;64.50;49.75;;;;;;;;5073556;27;49618;-69
2021/11/25 14:13:03;;;;;;;;;67.00;53.00;;;;;;;;5073742;27;49561;-70
2021/11/25 14:15:30;;;;;;;;;63.75;49.25;;;;;;;;5073287;27;50651;-68
2021/11/25 14:17:56;;;;;;;;;61.00;48.25;;;;;;;;5073309;28;49711;-67
2021/11/25 14:20:23;;;;;;;;;67.00;53.00;;;;;;;;5073307;27;49971;-67